Time;durP1;ratioP1;P1;durP2;ratioP2;P2;SDS_P1;SDS_P2;PMS_P1;PMS_P2;Temp;Humidity;BMP_temperature;BMP_pressure;BME280_temperature;BME280_humidity;BME280_pressure;Samples;Min_cycle;Max_cycle;Signal;HPM_P1;HPM_P2
2022/05/24 00:00:20;;;;;;;41.97;22.13;;;;;;;12.26;100.00;99971.06;4996888;28;20034;-86
2022/05/24 00:02:48;;;;;;;43.83;21.48;;;;;;;12.28;100.00;99978.97;5013891;28;20029;-86
2022/05/24 00:05:17;;;;;;;38.03;19.83;;;;;;;12.12;100.00;99961.59;5014223;28;20470;-86
2022/05/24 00:07:43;;;;;;;40.58;21.33;;;;;;;12.08;100.00;99961.25;4996376;28;20041;-86
2022/05/24 00:10:11;;;;;;;42.97;22.17;;;;;;;12.11;100.00;99970.84;4979818;28;20477;-86
2022/05/24 00:12:40;;;;;;;44.20;20.63;;;;;;;12.08;100.00;99974.03;4995998;28;20030;-86
2022/05/24 00:15:31;;;;;;;41.63;20.35;;;;;;;11.99;100.00;99945.59;4996015;28;20030;-86
2022/05/24 00:18:02;;;;;;;42.00;22.05;;;;;;;12.06;100.00;99968.84;4996341;28;20030;-86
2022/05/24 00:20:34;;;;;;;37.03;20.45;;;;;;;11.98;100.00;99961.09;4996265;28;20053;-86
2022/05/24 00:23:06;;;;;;;44.35;21.00;;;;;;;11.93;100.00;99966.47;4996615;28;20033;-86
2022/05/24 00:25:38;;;;;;;39.13;20.10;;;;;;;11.88;100.00;99967.13;5013992;28;20109;-86
2022/05/24 00:28:05;;;;;;;38.20;20.08;;;;;;;11.86;100.00;99966.56;4996086;28;20030;-86
2022/05/24 00:30:39;;;;;;;36.80;20.60;;;;;;;11.79;100.00;99965.91;4996441;28;20111;-85
2022/05/24 00:33:05;;;;;;;40.40;21.02;;;;;;;11.84;100.00;99979.59;5013885;28;20034;-86
2022/05/24 00:35:31;;;;;;;29.27;16.87;;;;;;;11.77;100.00;99963.44;4996116;28;20137;-86
2022/05/24 00:38:06;;;;;;;34.00;17.70;;;;;;;11.76;100.00;99963.69;5013282;28;20284;-86
2022/05/24 00:40:46;;;;;;;32.45;18.70;;;;;;;11.75;100.00;99973.72;5014076;28;20053;-86
2022/05/24 00:43:39;;;;;;;35.05;16.80;;;;;;;11.69;100.00;99976.59;4999369;28;20052;-86
2022/05/24 00:46:49;;;;;;;24.00;13.90;;;;;;;11.66;100.00;99966.22;5000851;28;20148;-86
2022/05/24 00:49:23;;;;;;;32.20;14.17;;;;;;;11.55;100.00;99970.66;5008635;28;20481;-86
2022/05/24 00:51:55;;;;;;;26.25;14.93;;;;;;;11.43;100.00;99959.81;4999668;28;20030;-87
2022/05/24 00:54:23;;;;;;;26.20;13.05;;;;;;;11.46;100.00;99958.53;5000970;28;20362;-86
2022/05/24 00:57:02;;;;;;;26.38;13.38;;;;;;;11.34;100.00;99959.38;5000004;28;20037;-87
2022/05/24 00:59:46;;;;;;;28.02;13.48;;;;;;;11.26;100.00;99954.34;5017186;28;20363;-86
2022/05/24 01:02:12;;;;;;;25.90;13.73;;;;;;;11.23;100.00;99957.53;5000356;28;20520;-86
2022/05/24 01:04:40;;;;;;;26.98;12.50;;;;;;;11.21;100.00;99951.53;4999559;28;20026;-87
2022/05/24 01:07:06;;;;;;;27.65;13.05;;;;;;;11.16;100.00;99949.53;4999860;28;20036;-87
2022/05/24 01:09:49;;;;;;;26.23;13.10;;;;;;;11.21;100.00;99962.41;4999616;28;20116;-87
2022/05/24 01:12:20;;;;;;;28.80;13.52;;;;;;;11.07;100.00;99948.25;4999833;28;20504;-87
2022/05/24 01:14:51;;;;;;;30.58;13.00;;;;;;;11.03;100.00;99945.22;4999856;28;20034;-87
2022/05/24 01:17:19;;;;;;;22.75;11.93;;;;;;;11.04;100.00;99954.16;5016816;28;20125;-87
2022/05/24 01:19:47;;;;;;;21.50;10.80;;;;;;;11.00;100.00;99948.41;5000141;28;20041;-87
2022/05/24 01:22:39;;;;;;;22.63;10.50;;;;;;;10.96;100.00;99946.41;4999395;28;20041;-87
2022/05/24 01:25:23;;;;;;;18.13;11.02;;;;;;;11.01;100.00;99960.06;4999324;28;20030;-87
2022/05/24 01:27:50;;;;;;;21.67;10.38;;;;;;;10.92;100.00;99965.06;5000082;28;20398;-86
2022/05/24 01:30:19;;;;;;;24.00;10.50;;;;;;;10.96;100.00;99970.84;4982685;28;20040;-87
2022/05/24 01:39:06;;;;;;;27.00;9.63;;;;;;;10.86;100.00;99972.25;5132465;28;20492;-87
2022/05/24 01:41:42;;;;;;;24.30;10.32;;;;;;;10.86;100.00;99972.25;5125765;28;20034;-87
2022/05/24 01:44:11;;;;;;;24.98;9.35;;;;;;;10.82;100.00;99973.81;5130868;28;20027;-86
2022/05/24 01:46:43;;;;;;;17.77;9.30;;;;;;;10.86;100.00;99977.69;5130535;28;20459;-86
2022/05/24 01:49:23;;;;;;;17.95;8.25;;;;;;;10.80;100.00;99975.13;5130401;28;20543;-87
2022/05/24 01:52:07;;;;;;;19.67;7.67;;;;;;;10.88;100.00;99983.72;5130580;28;20076;-87
2022/05/24 01:54:39;;;;;;;19.35;7.55;;;;;;;10.82;100.00;99975.69;5131951;27;20029;-87
2022/05/24 01:57:17;;;;;;;15.27;7.28;;;;;;;10.77;100.00;99972.88;5130759;28;20114;-87
2022/05/24 01:59:49;;;;;;;15.30;7.18;;;;;;;10.74;100.00;99968.75;5131964;27;20027;-87
2022/05/24 02:02:17;;;;;;;14.65;6.20;;;;;;;10.66;100.00;99959.09;5130559;28;20020;-87
2022/05/24 02:05:00;;;;;;;18.20;6.27;;;;;;;10.64;100.00;99953.06;5129482;28;20534;-87
2022/05/24 02:07:32;;;;;;;17.85;6.30;;;;;;;10.62;100.00;99951.66;5129567;28;20038;-87
2022/05/24 02:10:00;;;;;;;15.07;6.10;;;;;;;10.65;100.00;99962.84;5113112;28;20027;-87
2022/05/24 02:12:35;;;;;;;15.05;5.47;;;;;;;10.64;100.00;99969.34;5113361;28;20039;-87
2022/05/24 02:15:09;;;;;;;15.30;5.43;;;;;;;10.64;100.00;99973.94;5130153;28;20027;-87
2022/05/24 02:17:47;;;;;;;16.13;5.27;;;;;;;10.71;100.00;99975.47;5130004;28;20027;-87
2022/05/24 02:20:19;;;;;;;19.15;4.90;;;;;;;10.69;100.00;99977.59;5129991;28;20027;-87
2022/05/24 02:22:46;;;;;;;16.38;6.00;;;;;;;10.70;100.00;99987.41;5130631;28;20031;-87
2022/05/24 02:25:25;;;;;;;12.48;4.30;;;;;;;10.66;100.00;99983.50;5129842;28;20028;-87
2022/05/24 02:27:53;;;;;;;11.00;4.22;;;;;;;10.67;100.00;99974.31;5129676;28;20056;-87
2022/05/24 02:30:22;;;;;;;12.60;4.00;;;;;;;10.68;100.00;99972.41;5129892;28;20034;-86
2022/05/24 02:32:47;;;;;;;16.05;3.95;;;;;;;10.65;100.00;99975.59;5129540;28;20482;-87
2022/05/24 02:35:13;;;;;;;8.47;3.90;;;;;;;10.66;100.00;99982.69;5128883;28;20712;-87
2022/05/24 02:37:39;;;;;;;11.23;4.00;;;;;;;10.64;100.00;99979.38;5112569;28;20466;-87
2022/05/24 02:42:50;;;;;;;8.95;3.33;;;;;;;10.76;100.00;99982.88;5129962;28;20038;-86
2022/05/24 02:45:21;;;;;;;10.97;3.27;;;;;;;10.76;100.00;99976.66;5126242;28;20027;-87
2022/05/24 02:47:47;;;;;;;9.25;3.30;;;;;;;10.79;100.00;99981.59;5098918;28;20028;-86
2022/05/24 02:50:12;;;;;;;11.40;3.27;;;;;;;10.77;100.00;99987.25;5082022;28;20030;-86
2022/05/24 02:52:39;;;;;;;12.15;3.65;;;;;;;10.78;100.00;99982.69;5117062;28;20047;-86
2022/05/24 02:55:06;;;;;;;12.90;3.50;;;;;;;10.74;100.00;99992.34;5115698;28;20050;-86
2022/05/24 02:57:31;;;;;;;11.98;3.80;;;;;;;10.77;100.00;99998.13;5115673;28;20027;-86
2022/05/24 02:59:57;;;;;;;7.85;3.80;;;;;;;10.74;100.00;99979.59;5116558;28;20028;-87
2022/05/24 03:02:22;;;;;;;11.77;3.77;;;;;;;10.68;100.00;99961.56;5115518;28;20059;-86
2022/05/24 03:04:58;;;;;;;12.43;3.60;;;;;;;10.66;100.00;99958.28;5114663;28;20403;-86
2022/05/24 03:10:20;;;;;;;11.75;3.40;;;;;;;10.60;100.00;99976.31;5116738;28;20497;-86
2022/05/24 03:15:33;;;;;;;13.30;3.43;;;;;;;10.71;100.00;99980.88;5115452;28;20497;-86
2022/05/24 03:18:03;;;;;;;9.27;3.72;;;;;;;10.69;100.00;99979.50;5098482;28;20066;-86
2022/05/24 03:20:29;;;;;;;13.13;4.32;;;;;;;10.72;100.00;99989.88;5098461;28;20032;-87
2022/05/24 03:22:55;;;;;;;13.93;3.83;;;;;;;10.69;100.00;99982.22;5097693;28;20044;-87
2022/05/24 03:25:25;;;;;;;12.43;4.20;;;;;;;10.69;100.00;99980.31;5116086;28;20503;-87
2022/05/24 03:27:55;;;;;;;10.93;4.35;;;;;;;10.74;100.00;99995.88;5116476;28;20115;-86
2022/05/24 03:30:30;;;;;;;13.50;4.40;;;;;;;10.67;100.00;99978.91;5114900;28;20065;-87
2022/05/24 03:32:55;;;;;;;10.45;3.80;;;;;;;10.68;100.00;99997.66;5115096;28;20024;-87
2022/05/24 03:35:23;;;;;;;9.73;4.07;;;;;;;10.71;100.00;100001.78;5113766;28;20043;-87
2022/05/24 03:37:58;;;;;;;14.13;4.73;;;;;;;10.67;100.00;99993.31;5114557;28;20372;-86
2022/05/24 03:40:23;;;;;;;15.10;4.45;;;;;;;10.64;100.00;99988.31;5115374;28;20110;-87
2022/05/24 03:42:51;;;;;;;16.00;4.47;;;;;;;10.74;100.00;99986.94;5115935;28;20469;-87
2022/05/24 03:45:20;;;;;;;11.50;4.75;;;;;;;10.66;100.00;99972.66;5114470;28;20121;-87
2022/05/24 03:47:46;;;;;;;11.20;4.30;;;;;;;10.74;100.00;99992.34;5114545;28;20035;-87
2022/05/24 03:50:17;;;;;;;12.70;4.83;;;;;;;10.67;100.00;99982.44;5114492;28;20115;-87
2022/05/24 03:52:42;;;;;;;17.25;5.45;;;;;;;10.70;100.00;99990.13;5097167;28;20051;-87
2022/05/24 03:55:09;;;;;;;12.63;4.87;;;;;;;10.66;100.00;100007.09;5114272;28;20035;-86
2022/05/24 04:00:25;;;;;;;14.13;5.15;;;;;;;10.67;100.00;100016.88;5114941;28;20043;-87
2022/05/24 04:03:01;;;;;;;13.85;4.65;;;;;;;10.69;100.00;100015.59;5114079;28;20051;-87
2022/05/24 04:05:27;;;;;;;15.15;5.30;;;;;;;10.68;100.00;100043.75;5114354;28;20036;-86
2022/05/24 04:07:55;;;;;;;10.47;4.67;;;;;;;10.69;100.00;100036.47;5114553;28;20046;-86
2022/05/24 04:10:23;;;;;;;10.07;4.15;;;;;;;10.67;100.00;100042.13;5114097;28;20032;-87
2022/05/24 04:12:49;;;;;;;11.75;3.83;;;;;;;10.68;100.00;100043.75;5113975;28;20026;-87
2022/05/24 04:15:15;;;;;;;11.45;4.30;;;;;;;10.69;100.00;100045.44;5113741;28;20028;-86
2022/05/24 04:17:45;;;;;;;15.47;3.47;;;;;;;10.76;100.00;100050.72;5114244;28;20019;-86
2022/05/24 04:20:16;;;;;;;12.65;4.05;;;;;;;10.71;100.00;100040.56;5115100;28;20070;-86
2022/05/24 04:22:50;;;;;;;14.02;3.70;;;;;;;10.70;100.00;100019.13;5114011;28;20094;-86
2022/05/24 04:25:20;;;;;;;15.95;4.43;;;;;;;10.68;100.00;100004.97;5097663;28;20548;-87
2022/05/24 04:27:51;;;;;;;13.35;3.70;;;;;;;10.64;100.00;100009.22;5113753;28;20027;-86
2022/05/24 04:30:17;;;;;;;10.70;3.80;;;;;;;10.64;100.00;100009.22;5097530;28;20056;-87
2022/05/24 04:32:45;;;;;;;7.82;3.33;;;;;;;10.62;100.00;100020.28;5114011;28;20452;-87
2022/05/24 04:35:19;;;;;;;20.38;4.00;;;;;;;10.67;100.00;100041.28;5114160;28;20054;-86
2022/05/24 04:37:45;;;;;;;12.33;3.60;;;;;;;10.64;100.00;100055.31;5113967;28;20096;-87
2022/05/24 04:40:13;;;;;;;6.90;3.50;;;;;;;10.65;100.00;100065.94;5114778;28;20035;-87
2022/05/24 04:42:39;;;;;;;11.80;3.35;;;;;;;10.70;100.00;100065.22;5096430;28;20035;-86
2022/05/24 04:45:23;;;;;;;;;;;;;;;;;;;;;
2022/05/24 04:47:51;;;;;;;10.77;3.03;;;;;;;10.64;100.00;100039.06;5115661;28;20032;-86
2022/05/24 04:50:19;;;;;;;12.45;3.13;;;;;;;10.67;100.00;100049.44;5096532;28;20162;-87
2022/05/24 04:52:45;;;;;;;9.40;3.15;;;;;;;10.69;100.00;100055.47;5113832;28;20039;-86
2022/05/24 04:55:13;;;;;;;7.97;3.00;;;;;;;10.71;100.00;100064.19;5112442;28;20042;-86
2022/05/24 04:57:43;;;;;;;10.80;3.10;;;;;;;10.72;100.00;100073.97;5113281;28;20489;-86
2022/05/24 05:00:15;;;;;;;9.77;3.00;;;;;;;10.68;100.00;100070.91;5113308;28;20031;-86
2022/05/24 05:02:43;;;;;;;10.52;2.90;;;;;;;10.71;100.00;100080.47;5114412;28;20117;-86
2022/05/24 05:05:11;;;;;;;10.50;2.67;;;;;;;10.71;100.00;100078.56;5113763;28;20040;-86
2022/05/24 05:07:37;;;;;;;12.48;2.83;;;;;;;10.81;100.00;100098.88;5114955;28;20106;-86
2022/05/24 05:10:05;;;;;;;9.03;2.90;;;;;;;10.80;100.00;100108.06;5113127;28;20033;-86
2022/05/24 05:12:31;;;;;;;9.38;2.30;;;;;;;10.77;100.00;100101.22;5112973;28;20084;-86
2022/05/24 05:15:20;;;;;;;;;;;;;;;;;;;;;
2022/05/24 05:21:03;;;;;;;14.05;2.83;;;;;;;11.04;100.00;100107.03;5106416;28;20364;-93
2022/05/24 05:23:54;;;;;;;9.82;3.15;;;;;;;11.08;98.98;100104.66;5113365;28;20032;-92
2022/05/24 05:26:28;;;;;;;8.00;2.05;;;;;;;11.09;98.71;100091.88;5114905;27;20038;-95
2022/05/24 05:29:11;;;;;;;6.87;2.53;;;;;;;11.12;98.49;100108.56;5113389;28;20111;-95
2022/05/24 05:31:46;;;;;;;8.27;2.60;;;;;;;11.20;97.72;100127.19;5113328;28;20032;-91
2022/05/24 05:34:22;;;;;;;14.50;2.97;;;;;;;11.12;97.98;100100.41;5096042;28;20105;-91
2022/05/24 05:36:52;;;;;;;7.20;2.80;;;;;;;11.15;97.35;100088.25;5113085;28;20028;-90
2022/05/24 05:39:29;;;;;;;8.27;2.65;;;;;;;11.25;97.24;100093.91;5096136;28;20028;-90
2022/05/24 05:42:01;;;;;;;14.67;4.10;;;;;;;11.24;96.61;100092.25;5097160;28;20571;-91
2022/05/24 05:44:46;;;;;;;;;;;;;;;;;;;;;
2022/05/24 05:47:20;;;;;;;10.93;2.83;;;;;;;11.22;96.70;100091.66;5114252;28;20027;-92
2022/05/24 05:49:48;;;;;;;12.07;2.72;;;;;;;11.12;96.42;100103.13;5112838;28;20032;-91
2022/05/24 05:52:17;;;;;;;11.57;2.55;;;;;;;11.03;96.24;100118.94;5114225;28;20067;-92
2022/05/24 05:54:54;;;;;;;9.57;2.53;;;;;;;11.00;96.72;100127.56;5112392;28;20478;-92
2022/05/24 05:57:19;;;;;;;11.30;2.60;;;;;;;10.99;97.01;100134.03;5095795;28;20053;-90
2022/05/24 05:59:45;;;;;;;10.18;2.42;;;;;;;11.02;96.24;100133.56;5112244;28;20027;-89
2022/05/24 06:02:11;;;;;;;9.17;2.60;;;;;;;11.09;96.43;100148.91;5095568;28;20035;-89
2022/05/24 06:04:39;;;;;;;9.50;2.37;;;;;;;11.13;95.84;100150.94;5111880;28;20023;-89
2022/05/24 06:07:05;;;;;;;8.35;2.38;;;;;;;11.12;96.09;100143.03;5112035;28;20031;-89
2022/05/24 06:09:35;;;;;;;7.80;2.33;;;;;;;11.30;94.19;100151.03;5111971;28;20556;-89
2022/05/24 06:12:07;;;;;;;7.75;2.10;;;;;;;11.23;94.84;100158.47;5113398;28;20027;-89
2022/05/24 06:14:33;;;;;;;6.10;2.28;;;;;;;11.32;94.90;100150.78;5112515;28;20019;-88
2022/05/24 06:17:01;;;;;;;6.73;2.33;;;;;;;11.40;93.17;100143.13;5112366;28;20031;-89
2022/05/24 06:19:37;;;;;;;6.18;1.88;;;;;;;11.47;93.37;100150.31;5112040;28;20467;-89
2022/05/24 06:22:03;;;;;;;9.93;2.45;;;;;;;11.62;92.50;100163.38;5098805;28;20039;-88
2022/05/24 06:24:29;;;;;;;8.33;1.80;;;;;;;11.76;91.74;100157.44;5117216;28;20027;-89
2022/05/24 06:27:02;;;;;;;7.10;1.77;;;;;;;11.92;91.79;100165.94;5115387;28;20039;-89
2022/05/24 06:29:33;;;;;;;12.50;2.13;;;;;;;12.13;89.88;100172.63;5116081;28;20029;-89
2022/05/24 06:32:01;;;;;;;7.22;2.10;;;;;;;12.14;89.71;100166.13;5115363;28;20032;-89
2022/05/24 06:34:30;;;;;;;7.47;1.65;;;;;;;12.05;88.55;100162.16;5114978;28;20047;-89
2022/05/24 06:36:58;;;;;;;6.77;1.70;;;;;;;11.94;87.67;100161.09;5115341;28;20057;-88
2022/05/24 06:39:35;;;;;;;;;;;;;;;;;;;;;
2022/05/24 06:42:03;;;;;;;8.77;1.60;;;;;;;11.85;88.69;100163.34;5116945;28;20020;-89
2022/05/24 06:44:31;;;;;;;5.60;1.58;;;;;;;11.86;86.95;100173.16;5115656;28;20475;-88
2022/05/24 06:46:57;;;;;;;8.77;1.52;;;;;;;11.87;87.64;100169.38;5098393;28;20036;-88
2022/05/24 06:49:25;;;;;;;9.20;1.77;;;;;;;12.01;88.14;100175.38;5115438;28;20020;-86
2022/05/24 06:51:53;;;;;;;9.23;1.67;;;;;;;12.18;84.99;100197.22;5114999;28;20034;-87
2022/05/24 06:54:19;;;;;;;8.15;1.90;;;;;;;12.24;84.46;100200.84;5115440;28;20031;-86
2022/05/24 06:56:44;;;;;;;8.40;1.83;;;;;;;12.35;84.75;100215.47;5115223;28;20468;-85
2022/05/24 07:04:40;;;;;;;7.93;1.58;;;;;;;12.84;84.29;100220.44;5115553;28;20054;-86
2022/05/24 07:07:06;;;;;;;4.33;1.43;;;;;;;12.99;83.48;100199.75;5115260;28;20035;-86
2022/05/24 07:09:34;;;;;;;8.88;1.67;;;;;;;13.14;82.06;100209.25;5114777;28;20033;-86
2022/05/24 07:12:00;;;;;;;8.07;1.58;;;;;;;13.26;80.90;100220.06;5115044;28;20035;-86
2022/05/24 07:14:26;;;;;;;6.15;1.70;;;;;;;13.31;80.03;100229.09;5116212;28;20046;-86
2022/05/24 07:16:51;;;;;;;8.93;1.70;;;;;;;13.26;80.25;100222.78;5098285;28;20470;-86
2022/05/24 07:19:20;;;;;;;6.57;1.38;;;;;;;13.21;79.26;100217.22;5115597;28;20036;-86
2022/05/24 07:21:48;;;;;;;11.10;1.90;;;;;;;13.24;79.40;100225.75;5114924;28;20080;-86
2022/05/24 07:24:13;;;;;;;5.47;1.33;;;;;;;13.24;79.54;100214.00;5114849;28;20119;-86
2022/05/24 07:26:46;;;;;;;4.32;1.23;;;;;;;13.31;79.40;100217.41;5098091;28;20554;-86
2022/05/24 07:29:12;;;;;;;6.93;1.27;;;;;;;13.33;78.76;100228.84;5114644;28;20502;-86
2022/05/24 07:31:38;;;;;;;5.95;1.33;;;;;;;13.42;79.38;100232.00;5115030;28;20478;-86
2022/05/24 07:34:07;;;;;;;2.97;1.13;;;;;;;13.58;78.43;100241.25;5114734;28;20054;-86
2022/05/24 07:36:33;;;;;;;7.32;1.30;;;;;;;13.65;75.61;100223.63;5114103;28;20039;-86
2022/05/24 07:38:58;;;;;;;4.38;1.30;;;;;;;13.65;74.83;100244.63;5114671;28;20455;-86
2022/05/24 07:46:52;;;;;;;6.47;1.37;;;;;;;13.59;73.86;100229.28;5115859;28;20088;-86
2022/05/24 07:49:20;;;;;;;7.43;1.20;;;;;;;13.62;73.42;100239.69;5097457;28;20036;-86
2022/05/24 07:51:46;;;;;;;3.65;1.35;;;;;;;13.62;74.20;100237.78;5080474;28;20133;-86
2022/05/24 07:54:14;;;;;;;4.33;1.03;;;;;;;13.66;74.93;100229.94;5114536;28;20539;-86
2022/05/24 07:56:41;;;;;;;6.13;1.42;;;;;;;13.71;74.03;100251.00;5097441;28;20540;-86
2022/05/24 07:59:10;;;;;;;4.23;1.73;;;;;;;13.81;72.94;100242.94;5114293;28;20038;-86
2022/05/24 08:01:41;;;;;;;5.75;1.80;;;;;;;13.97;73.65;100247.53;5114147;28;20023;-86
2022/05/24 08:04:10;;;;;;;5.68;1.90;;;;;;;14.01;72.52;100242.38;5114385;28;20027;-86
2022/05/24 08:06:36;;;;;;;4.93;1.80;;;;;;;14.04;71.86;100252.81;5113290;28;20123;-86
2022/05/24 08:09:05;;;;;;;3.17;1.38;;;;;;;14.08;71.61;100275.75;5114130;28;20027;-86
2022/05/24 08:11:33;;;;;;;4.90;1.60;;;;;;;14.01;71.27;100250.56;5114244;28;20035;-86
2022/05/24 08:14:02;;;;;;;5.55;1.70;;;;;;;13.97;70.94;100266.63;5115000;28;20027;-86
2022/05/24 08:16:32;;;;;;;4.18;1.75;;;;;;;14.01;72.33;100264.19;5113794;28;20028;-86
2022/05/24 08:18:58;;;;;;;2.47;1.73;;;;;;;14.14;71.10;100263.00;5113779;28;20027;-87
2022/05/24 08:21:29;;;;;;;15.15;2.38;;;;;;;14.34;71.77;100266.00;5113492;28;20034;-87
2022/05/24 08:23:58;;;;;;;7.07;2.80;;;;;;;14.48;69.89;100271.06;5113765;28;20039;-86
2022/05/24 08:26:26;;;;;;;5.55;2.47;;;;;;;14.49;68.87;100289.09;5096711;28;20130;-86
2022/05/24 08:28:55;;;;;;;5.53;2.35;;;;;;;14.28;67.83;100275.19;5114903;28;20032;-86
2022/05/24 08:31:20;;;;;;;4.90;1.95;;;;;;;14.22;69.56;100289.88;5113100;28;20032;-87
2022/05/24 08:33:47;;;;;;;3.70;1.73;;;;;;;14.18;69.13;100292.25;5114569;28;20030;-86
2022/05/24 08:36:13;;;;;;;6.82;1.77;;;;;;;14.16;68.85;100301.78;5112552;28;20071;-87
2022/05/24 08:38:42;;;;;;;3.72;1.73;;;;;;;14.06;70.78;100296.19;5096791;28;20051;-86
2022/05/24 08:41:19;;;;;;;8.10;2.30;;;;;;;13.93;69.98;100300.09;5114728;28;20024;-86
2022/05/24 08:43:55;;;;;;;4.10;1.77;;;;;;;13.89;70.26;100307.13;5112920;28;20383;-87
2022/05/24 08:49:24;;;;;;;3.97;1.63;;;;;;;14.21;70.83;100321.75;5115890;28;20045;-87
2022/05/24 08:51:56;;;;;;;5.88;1.60;;;;;;;14.12;70.15;100342.38;5112469;28;20039;-86
2022/05/24 08:54:33;;;;;;;7.28;1.40;;;;;;;14.07;69.79;100331.41;5112942;28;20019;-86
2022/05/24 08:57:07;;;;;;;3.87;1.40;;;;;;;13.82;70.08;100329.13;5113154;28;20517;-86
2022/05/24 08:59:56;;;;;;;4.35;1.35;;;;;;;13.82;71.80;100331.88;5113158;28;20028;-86
2022/05/24 09:02:24;;;;;;;3.33;1.40;;;;;;;13.88;69.00;100347.22;5113076;28;20023;-86
2022/05/24 09:04:50;;;;;;;2.78;1.17;;;;;;;13.73;68.55;100336.06;5112216;28;20467;-87
2022/05/24 09:07:31;;;;;;;3.85;1.50;;;;;;;13.67;70.28;100355.06;5113174;28;20024;-86
2022/05/24 09:10:01;;;;;;;2.93;1.30;;;;;;;13.75;69.86;100345.66;5114424;28;20068;-86
2022/05/24 09:12:37;;;;;;;2.53;1.20;;;;;;;13.96;68.67;100354.97;5112922;28;20113;-86
2022/05/24 09:15:30;;;;;;;10.88;1.90;;;;;;;14.27;68.67;100368.22;5114129;28;20027;-86
2022/05/24 09:18:23;;;;;;;3.50;1.63;;;;;;;14.48;69.35;100366.59;5113427;28;20455;-86
2022/05/24 09:20:50;;;;;;;4.05;2.42;;;;;;;14.52;65.20;100375.94;5112763;28;20073;-86
2022/05/24 09:23:42;;;;;;;4.30;2.70;;;;;;;14.38;66.25;100384.50;5113010;28;20086;-86
2022/05/24 09:26:11;;;;;;;3.85;2.67;;;;;;;14.10;65.85;100366.38;5111394;28;20114;-87
2022/05/24 09:28:53;;;;;;;5.95;3.20;;;;;;;14.09;66.59;100385.72;5112487;28;20034;-86
2022/05/24 09:31:30;;;;;;;5.43;2.75;;;;;;;14.00;67.55;100398.94;5113932;28;20032;-86
2022/05/24 09:34:12;;;;;;;2.92;2.55;;;;;;;14.09;66.87;100380.25;5113964;28;20082;-87
2022/05/24 09:36:44;;;;;;;3.40;2.20;;;;;;;14.26;66.75;100385.66;5112361;28;20019;-86
2022/05/24 09:39:26;;;;;;;3.42;3.10;;;;;;;14.64;66.13;100384.84;5113792;28;20095;-86
2022/05/24 09:41:56;;;;;;;7.18;3.15;;;;;;;14.69;65.14;100392.28;5112542;28;20352;-86
2022/05/24 09:44:26;;;;;;;4.25;3.20;;;;;;;14.80;64.10;100394.06;5112532;28;20028;-86
2022/05/24 09:46:55;;;;;;;6.93;3.25;;;;;;;14.71;63.43;100390.13;5112396;28;20028;-86
2022/05/24 09:49:46;;;;;;;6.77;4.20;;;;;;;14.61;64.92;100389.97;5113619;28;20103;-86
2022/05/24 09:52:14;;;;;;;9.57;3.60;;;;;;;14.70;64.56;100400.22;5090569;28;20496;-86
2022/05/24 09:55:01;;;;;;;6.07;4.22;;;;;;;14.82;65.29;100388.34;5113903;28;20399;-86
2022/05/24 09:57:32;;;;;;;5.63;3.72;;;;;;;14.81;64.06;100395.72;5116381;28;20034;-86
2022/05/24 10:00:20;;;;;;;6.70;4.15;;;;;;;15.05;64.05;100409.09;5117635;28;20047;-86
2022/05/24 10:02:48;;;;;;;5.17;4.67;;;;;;;15.15;61.64;100408.41;5116549;28;20479;-86
2022/05/24 10:05:27;;;;;;;5.65;4.45;;;;;;;15.29;62.17;100385.03;5117052;28;20035;-86
2022/05/24 10:08:01;;;;;;;7.20;4.50;;;;;;;15.46;62.38;100397.75;5116949;28;20110;-86
2022/05/24 10:10:39;;;;;;;5.75;4.10;;;;;;;15.59;58.27;100395.44;5115981;28;20039;-86
2022/05/24 10:13:29;;;;;;;4.35;3.78;;;;;;;15.86;57.46;100407.44;5116356;28;20463;-86
2022/05/24 10:16:05;;;;;;;5.40;3.50;;;;;;;16.35;56.83;100398.19;5116010;28;20035;-87
2022/05/24 10:18:33;;;;;;;5.32;3.60;;;;;;;16.45;55.30;100401.81;5116257;28;20027;-86
2022/05/24 10:21:09;;;;;;;6.90;4.00;;;;;;;16.61;55.01;100407.38;5116562;28;20034;-86
2022/05/24 10:23:58;;;;;;;10.43;4.25;;;;;;;16.71;56.19;100396.47;5116070;28;20027;-86
2022/05/24 10:26:59;;;;;;;6.68;4.20;;;;;;;17.11;54.55;100416.91;5115741;28;20185;-86
2022/05/24 10:29:49;;;;;;;4.70;4.30;;;;;;;17.16;55.30;100413.38;5045174;28;20045;-84
2022/05/24 10:38:28;;;;;;;5.28;4.00;;;;;;;17.26;52.08;100423.50;5110043;28;20067;-85
2022/05/24 10:41:09;;;;;;;4.75;4.22;;;;;;;16.96;52.56;100431.41;5116944;28;20066;-84
2022/05/24 10:44:00;;;;;;;7.63;4.90;;;;;;;16.78;53.22;100423.59;5115839;28;20031;-85
2022/05/24 10:46:52;;;;;;;6.80;4.30;;;;;;;16.61;54.77;100429.28;5115668;28;20028;-85
2022/05/24 10:49:43;;;;;;;6.70;4.90;;;;;;;16.55;54.97;100433.06;5116980;27;20053;-84
2022/05/24 10:52:23;;;;;;;5.60;5.10;;;;;;;16.59;53.55;100421.31;5115594;28;20063;-84
2022/05/24 10:55:01;;;;;;;7.63;4.95;;;;;;;16.86;53.43;100434.06;5115714;28;20204;-84
2022/05/24 10:57:44;;;;;;;8.00;5.37;;;;;;;16.70;53.96;100419.47;5115180;28;20043;-85
2022/05/24 11:00:32;;;;;;;5.85;5.35;;;;;;;16.85;54.28;100429.66;5115443;28;20039;-85
2022/05/24 11:03:14;;;;;;;5.25;4.60;;;;;;;17.32;54.75;100433.44;5115364;28;20084;-86
2022/05/24 11:05:52;;;;;;;4.38;2.80;;;;;;;17.65;55.27;100440.31;5114517;28;20119;-85
2022/05/24 11:08:30;;;;;;;3.58;2.92;;;;;;;17.90;54.88;100437.91;5116032;28;20055;-85
2022/05/24 11:11:00;;;;;;;2.83;2.60;;;;;;;18.40;52.98;100437.03;5116268;28;20084;-84
2022/05/24 11:13:51;;;;;;;7.30;3.10;;;;;;;19.25;51.75;100429.88;5116471;28;20027;-85
2022/05/24 11:16:33;;;;;;;3.95;3.53;;;;;;;19.37;48.60;100404.75;5116471;28;20023;-86
2022/05/24 11:19:02;;;;;;;6.80;3.97;;;;;;;20.01;47.75;100409.53;5115223;28;20043;-85
2022/05/24 11:21:39;;;;;;;4.57;4.18;;;;;;;22.44;40.34;100436.31;5114966;28;20024;-85
2022/05/24 11:24:11;;;;;;;4.47;3.77;;;;;;;24.51;36.85;100414.63;5114978;28;20031;-85
2022/05/24 11:26:46;;;;;;;5.25;3.40;;;;;;;24.02;35.97;100435.09;5114933;28;20032;-85
2022/05/24 11:29:24;;;;;;;5.03;3.80;;;;;;;24.04;35.31;100430.06;5114678;28;20046;-85
2022/05/24 11:32:01;;;;;;;4.32;3.55;;;;;;;24.10;33.75;100426.03;5114862;28;20070;-85
2022/05/24 11:34:35;;;;;;;3.40;3.10;;;;;;;21.78;37.88;100443.78;5114018;28;20048;-85
2022/05/24 11:37:06;;;;;;;4.10;3.10;;;;;;;22.83;37.60;100446.03;5114727;28;20446;-84
2022/05/24 11:39:42;;;;;;;3.30;3.00;;;;;;;24.78;34.85;100423.09;5116201;28;20106;-85
2022/05/24 11:42:43;;;;;;;3.50;3.20;;;;;;;26.63;34.50;100433.78;5114833;28;20106;-85
2022/05/24 11:45:34;;;;;;;5.20;3.58;;;;;;;27.61;31.39;100441.25;5115876;28;20085;-85
2022/05/24 11:48:06;;;;;;;3.42;3.13;;;;;;;28.70;28.64;100452.25;5114427;28;20038;-85
2022/05/24 11:50:35;;;;;;;3.40;3.10;;;;;;;27.99;28.64;100443.84;5114284;28;20024;-85
2022/05/24 11:53:04;;;;;;;3.83;3.22;;;;;;;25.35;32.56;100441.69;5114510;28;20023;-85
2022/05/24 11:55:55;;;;;;;3.60;3.30;;;;;;;25.90;33.27;100451.31;5114151;28;20031;-86
2022/05/24 11:58:23;;;;;;;5.20;2.90;;;;;;;26.75;29.46;100456.19;5114403;28;20531;-85
2022/05/24 12:01:15;;;;;;;4.47;3.30;;;;;;;24.68;33.10;100461.09;5114490;28;20495;-85
2022/05/24 12:10:01;;;;;;;3.58;3.28;;;;;;;19.38;42.66;100469.66;5110359;28;20374;-85
2022/05/24 12:12:34;;;;;;;3.47;2.92;;;;;;;18.46;48.48;100484.53;5113738;28;20031;-85
2022/05/24 12:15:44;;;;;;;5.57;2.95;;;;;;;16.72;57.78;100506.84;5113252;28;20124;-83
2022/05/24 12:18:11;;;;;;;7.10;3.40;;;;;;;14.99;68.32;100522.94;5112890;28;20032;-83
2022/05/24 12:20:36;;;;;;;5.22;2.97;;;;;;;14.17;73.29;100524.41;5113015;28;20046;-83
2022/05/24 12:23:09;;;;;;;4.53;4.10;;;;;;;14.00;76.72;100527.13;5113107;28;20028;-84
2022/05/24 12:25:54;;;;;;;5.45;3.22;;;;;;;13.98;74.83;100529.25;5113213;28;20070;-83
2022/05/24 12:28:28;;;;;;;2.92;2.40;;;;;;;13.69;74.21;100524.66;5113151;28;20042;-83
2022/05/24 12:30:55;;;;;;;6.95;1.88;;;;;;;13.32;75.82;100505.13;5113327;28;20031;-83
2022/05/24 12:34:02;;;;;;;3.35;1.80;;;;;;;13.03;77.33;100517.88;5112826;28;20068;-84
2022/05/24 12:36:36;;;;;;;7.60;1.80;;;;;;;13.04;78.08;100544.03;5112984;28;20108;-83